SBPK/PET METAR and TAF weather

Enter ICAO airport designator
Station Type Date Time Source
SBPK METAR 2021/10/22 18:00 UTC NOAA

SBPK 221800Z 12008KT 9999 FEW025 23/13 Q1012


Station Type Date Time Source
SBPK Decoded METAR 2021/10/22 18:00 UTC NOAA

Pelotas, Brazil (SBPK) 31-52S 052-21W 13M
Oct 22, 2021 - 02:00 PM EDT / 2021.10.22 1800 UTC
Wind: from the ESE (120 degrees) at 9 MPH (8 KT):0
Visibility: greater than 7 mile(s):0
Sky conditions: mostly clear
Temperature: 73 F (23 C)
Dew Point: 55 F (13 C)
Relative Humidity: 53%
Pressure (altimeter): 29.88 in. Hg (1012 hPa)
ob: SBPK 221800Z 12008KT 9999 FEW025 23/13 Q1012
cycle: 18

Station Type Date Time Source
SBPK TAF 2021/10/22 18:34 UTC NOAA

TAF SBPK 221500Z 2218/2318 10008KT 9999 FEW025 TN14/2308Z TX23/2317Z
BECMG 2306/2308 36005KT
BECMG 2316/2318 17005KT SCT035 FEW045TCU
RMK PED

Example: see airport list